HomeShort term forecast

Short term forecast

Graphical weather forecast for the next 48 hours for Montreal:

Short term forecast

This weather forecast is automatically refreshed every 3 hours.

Hourly Experimental Forecast for the next 48 hours

Overall summary: Possible light snow (< 1 cm.) later this morning and this afternoon.

 Date & Hour   Temp   Feel   Baro   Hum   Speed & Bearing   Wind Gust   Precip.%   Precip.   Visibility   Cloud cover   Conditions 
 02/12/2020 - 10:00  3.0°C  -1.2°C  1006.4 hPa  76%  18.3 km/h   38.3 km/h  21%  0.04 mm/h  16.1km  100%  Overcast 
 02/12/2020 - 11:00  2.9°C  -1.3°C  1006.5 hPa  77%  18.4 km/h   33.4 km/h  21%  0.06 mm/h  16.1km  100%  Overcast 
 02/12/2020 - 12:00  2.6°C  -1.8°C  1006.7 hPa  79%  18.5 km/h   30.3 km/h  15%  0.06 mm/h  16.1km  99%  Overcast 
 02/12/2020 - 13:00  1.9°C  -2.7°C  1006.7 hPa  80%  18.9 km/h   29.8 km/h  15%  0.07 mm/h  16.1km  99%  Overcast 
 02/12/2020 - 14:00  1.3°C  -3.6°C  1007.5 hPa  79%  19.8 km/h   32.5 km/h  15%  0.05 mm/h  16.1km  97%  Overcast 
 02/12/2020 - 15:00  0.4°C  -4.7°C  1008.4 hPa  80%  19.8 km/h   33.9 km/h  17%  0.05 mm/h  15.0km  97%  Overcast 
 02/12/2020 - 16:00  -0.4°C  -5.8°C  1009.0 hPa  81%  20.6 km/h   36.2 km/h  17%  0.11 mm/h  9.8km  97%  Overcast 
 02/12/2020 - 17:00  -0.7°C  -6.3°C  1009.9 hPa  78%  21.3 km/h   37.5 km/h  9%  0.01 mm/h  15.4km  93%  Overcast 
 02/12/2020 - 18:00  -0.9°C  -6.7°C  1010.2 hPa  79%  22.7 km/h   39.9 km/h  6%  0.01 mm/h  14.3km  85%  Mostly Cloudy 
 02/12/2020 - 19:00  -1.0°C  -7.0°C  1011.4 hPa  76%  23.3 km/h   41.0 km/h  6%  0.02 mm/h  13.1km  86%  Mostly Cloudy 
 02/12/2020 - 20:00  -1.1°C  -7.2°C  1011.3 hPa  72%  23.8 km/h   41.5 km/h  4%  0.01 mm/h  16.1km  87%  Mostly Cloudy 
 02/12/2020 - 21:00  -1.2°C  -7.3°C  1011.8 hPa  65%  24.5 km/h   41.6 km/h  3%  0.01 mm/h  16.1km  87%  Mostly Cloudy 
 02/12/2020 - 22:00  -1.1°C  -7.1°C  1012.6 hPa  61%  23.8 km/h   41.0 km/h  3%  0.03 mm/h  16.1km  72%  Mostly Cloudy 
 02/12/2020 - 23:00  -1.2°C  -7.3°C  1012.7 hPa  59%  23.7 km/h   41.3 km/h  0%  --  16.1km  67%  Mostly Cloudy 
 03/12/2020 - 00:00  -1.2°C  -7.1°C  1012.9 hPa  57%  22.7 km/h   43.2 km/h  0%  --  16.1km  53%  Partly Cloudy 
 03/12/2020 - 01:00  -1.2°C  -7.0°C  1013.3 hPa  57%  21.5 km/h   43.8 km/h  0%  --  16.1km  23%  Clear 
 03/12/2020 - 02:00  -1.3°C  -6.9°C  1013.8 hPa  58%  20.0 km/h   41.9 km/h  0%  --  16.1km  7%  Clear 
 03/12/2020 - 03:00  -1.4°C  -6.7°C  1014.2 hPa  59%  18.1 km/h   38.7 km/h  0%  --  16.1km  3%  Clear 
 03/12/2020 - 04:00  -1.3°C  -6.3°C  1014.5 hPa  61%  16.7 km/h   36.9 km/h  0%  --  16.1km  0%  Clear 
 03/12/2020 - 05:00  -1.1°C  -5.9°C  1014.7 hPa  66%  15.7 km/h   38.1 km/h  0%  --  16.1km  12%  Clear 
 03/12/2020 - 06:00  -0.8°C  -5.4°C  1014.8 hPa  72%  15.3 km/h   40.6 km/h  2%  0.01 mm/h  16.1km  55%  Partly Cloudy 
 03/12/2020 - 07:00  -0.4°C  -4.9°C  1015.0 hPa  78%  15.5 km/h   42.7 km/h  2%  0.02 mm/h  16.1km  77%  Mostly Cloudy 
 03/12/2020 - 08:00  0.3°C  -4.3°C  1015.0 hPa  81%  16.5 km/h   43.5 km/h  2%  0.03 mm/h  16.1km  84%  Mostly Cloudy 
 03/12/2020 - 09:00  1.3°C  -3.3°C  1014.9 hPa  82%  18.1 km/h   43.7 km/h  5%  0.03 mm/h  16.1km  89%  Overcast 
 03/12/2020 - 10:00  2.2°C  -2.4°C  1014.9 hPa  82%  19.5 km/h   43.8 km/h  7%  0.03 mm/h  16.1km  96%  Overcast 
 03/12/2020 - 11:00  3.0°C  -1.6°C  1014.3 hPa  81%  21.2 km/h   44.0 km/h  5%  0.02 mm/h  16.1km  96%  Overcast 
 03/12/2020 - 12:00  3.7°C  -0.9°C  1013.8 hPa  79%  22.9 km/h   44.1 km/h  4%  0.01 mm/h  16.1km  98%  Overcast 
 03/12/2020 - 13:00  4.2°C  -0.4°C  1013.5 hPa  77%  23.6 km/h   44.0 km/h  0%  --  16.1km  98%  Overcast 
 03/12/2020 - 14:00  4.4°C  0.0°C  1013.5 hPa  75%  22.4 km/h   43.2 km/h  0%  --  16.1km  98%  Overcast 
 03/12/2020 - 15:00  4.1°C  -0.1°C  1013.5 hPa  76%  20.2 km/h   42.3 km/h  6%  0.01 mm/h  16.1km  100%  Overcast 
 03/12/2020 - 16:00  3.8°C  -0.2°C  1013.6 hPa  77%  18.5 km/h   41.9 km/h  6%  0.01 mm/h  16.1km  100%  Overcast 
 03/12/2020 - 17:00  3.4°C  -0.7°C  1013.8 hPa  79%  18.2 km/h   42.6 km/h  7%  0.01 mm/h  16.1km  100%  Overcast 
 03/12/2020 - 18:00  3.3°C  -0.9°C  1014.2 hPa  80%  18.6 km/h   43.8 km/h  7%  0.03 mm/h  16.1km  99%  Overcast 
 03/12/2020 - 19:00  3.1°C  -1.2°C  1014.5 hPa  80%  18.8 km/h   44.5 km/h  7%  0.03 mm/h  16.1km  99%  Overcast 
 03/12/2020 - 20:00  3.1°C  -1.1°C  1014.5 hPa  78%  18.2 km/h   44.4 km/h  9%  0.03 mm/h  16.1km  96%  Overcast 
 03/12/2020 - 21:00  3.1°C  -1.0°C  1014.3 hPa  76%  17.3 km/h   43.8 km/h  7%  0.01 mm/h  16.1km  98%  Overcast 
 03/12/2020 - 22:00  3.2°C  -0.7°C  1014.3 hPa  75%  16.6 km/h   43.0 km/h  7%  0.02 mm/h  16.1km  98%  Overcast 
 03/12/2020 - 23:00  3.2°C  -0.6°C  1014.1 hPa  75%  16.1 km/h   42.3 km/h  9%  0.02 mm/h  16.1km  98%  Overcast 
 04/12/2020 - 00:00  3.2°C  -0.6°C  1013.8 hPa  76%  15.7 km/h   41.3 km/h  14%  0.04 mm/h  16.1km  98%  Overcast 
 04/12/2020 - 01:00  3.1°C  -0.7°C  1013.6 hPa  77%  15.3 km/h   39.7 km/h  17%  0.05 mm/h  16.1km  99%  Overcast 
 04/12/2020 - 02:00  2.8°C  -0.9°C  1013.6 hPa  78%  14.7 km/h   36.7 km/h  18%  0.04 mm/h  16.1km  98%  Overcast 
 04/12/2020 - 03:00  2.5°C  -1.2°C  1013.5 hPa  80%  14.1 km/h   33.1 km/h  22%  0.06 mm/h  13.3km  98%  Overcast 
 04/12/2020 - 04:00  2.0°C  -1.7°C  1013.5 hPa  84%  13.7 km/h   29.8 km/h  32%  0.10 mm/h  9.3km  97%  Possible Drizzle 
 04/12/2020 - 05:00  1.6°C  -2.1°C  1013.5 hPa  87%  13.2 km/h   27.0 km/h  47%  0.13 mm/h  9.4km  97%  Possible Drizzle 
 04/12/2020 - 06:00  1.2°C  -2.5°C  1013.6 hPa  90%  13.0 km/h   24.7 km/h  55%  0.18 mm/h  9.7km  99%  Possible Drizzle 
 04/12/2020 - 07:00  1.3°C  -2.4°C  1013.6 hPa  90%  13.0 km/h   23.3 km/h  54%  0.21 mm/h  10.1km  100%  Possible Drizzle 
 04/12/2020 - 08:00  1.6°C  -2.2°C  1013.6 hPa  88%  13.7 km/h   23.7 km/h  42%  0.18 mm/h  13.7km  100%  Possible Drizzle 
 04/12/2020 - 09:00  2.4°C  -1.5°C  1013.6 hPa  86%  14.9 km/h   25.1 km/h  25%  0.13 mm/h  16.1km  99%  Possible Drizzle 

 

Past weather and reports

Past weatherFind in this section the past weather conditions, weather archive, graphics, reports and statistics.

Current conditions

Current weather condition for MontrealAll you need to know about the current weather conditions for Montreal. Weather data is updated every 10 minutes.

Weather forecast

Current Montreal weatherSince 2004, celinium.com website has provided accurate weather forecast for Montreal's island.